KPGA

Page Municipal Airport

Page, Arizona, USA
KPGA 190034Z 1901/1924 VRB06KT P6SM SCT250
Issued Valid From Valid To
Jan-19 @ 00:34 UTC
(2 hours ago)
Jan-19 @ 01:00 UTC
(an hour ago)
Jan-20 @ 00:00 UTC
(in 22 hours)
Jan-19 @ 01:00 to Jan-20 @ 00:00
KPGA 190034Z 1901/1924 VRB06KT P6SM SCT250
Wind Visibility Clouds
Variable at 6 knots Greater than 6 miles
  • Scattered at 25,000' AGL
KPGA 190034Z 1901/1924 VRB06KT P6SM SCT250
Issued Jan-19 @ 00:34 UTC
(2 hours ago)
Valid From Jan-19 @ 01:00 UTC
(an hour ago)
Valid To Jan-20 @ 00:00 UTC
(in 22 hours)
Jan-19 @ 01:00 - Jan-20 @ 00:00
Wind Visibility
Variable at 6 knots Greater than 6 miles
Clouds
  • Scattered at 25,000' AGL